createdAt,value
2022-11-08T00:00:11.645Z,2.00
2022-11-08T00:02:39.623Z,2.13
2022-11-08T00:05:27.121Z,2.03
2022-11-08T00:08:12.630Z,1.80
2022-11-08T00:10:58.213Z,1.73
2022-11-08T00:13:43.736Z,1.63
2022-11-08T00:16:11.564Z,2.00
2022-11-08T00:18:39.387Z,1.90
2022-11-08T00:21:08.751Z,1.63
2022-11-08T00:23:36.948Z,1.60
2022-11-08T00:26:04.835Z,2.20
2022-11-08T00:28:32.978Z,2.20
2022-11-08T00:31:05.439Z,2.03
2022-11-08T00:33:33.292Z,1.90
2022-11-08T00:36:02.109Z,1.90
2022-11-08T00:38:31.586Z,1.90
2022-11-08T00:40:59.491Z,2.00
2022-11-08T00:43:27.370Z,1.70
2022-11-08T00:45:55.190Z,1.60
2022-11-08T00:48:23.007Z,2.30
2022-11-08T00:50:50.871Z,1.90
2022-11-08T00:53:18.800Z,2.00
2022-11-08T00:55:47.967Z,2.20
2022-11-08T00:58:16.260Z,1.97
2022-11-08T01:00:44.334Z,1.60
2022-11-08T01:03:21.332Z,1.70
2022-11-08T01:05:51.739Z,1.90
2022-11-08T01:08:21.027Z,1.63
2022-11-08T01:10:52.144Z,1.80
2022-11-08T01:13:20.685Z,1.80
2022-11-08T01:15:48.738Z,1.97
2022-11-08T01:18:18.047Z,1.70
2022-11-08T01:20:48.151Z,1.93
2022-11-08T01:23:17.145Z,2.00
2022-11-08T01:25:46.784Z,2.20
2022-11-08T01:28:16.713Z,2.10
2022-11-08T01:30:45.685Z,2.17
2022-11-08T01:33:14.499Z,2.30
2022-11-08T01:35:45.193Z,1.60
2022-11-08T01:38:13.368Z,1.60
2022-11-08T01:40:45.452Z,2.13
2022-11-08T01:43:35.659Z,1.90
2022-11-08T01:46:40.668Z,1.80
2022-11-08T01:49:30.669Z,2.00
2022-11-08T01:52:22.581Z,1.97
2022-11-08T01:54:57.357Z,2.50
2022-11-08T01:57:28.462Z,2.17
2022-11-08T02:00:01.353Z,1.93
2022-11-08T02:02:29.620Z,1.90
2022-11-08T02:04:58.652Z,1.83
2022-11-08T02:07:28.835Z,1.60
2022-11-08T02:09:57.209Z,1.90
2022-11-08T02:12:27.511Z,2.00
2022-11-08T02:14:56.786Z,1.60
2022-11-08T02:17:24.675Z,1.67
2022-11-08T02:19:52.558Z,1.57
2022-11-08T02:22:27.886Z,1.80
2022-11-08T02:24:58.775Z,1.63
2022-11-08T02:27:26.988Z,1.63
2022-11-08T02:29:56.250Z,1.33
2022-11-08T02:32:24.767Z,1.80
2022-11-08T02:34:55.620Z,1.67
2022-11-08T02:37:24.984Z,1.83
2022-11-08T02:39:52.849Z,1.60
2022-11-08T02:42:22.160Z,1.20
2022-11-08T02:44:50.263Z,1.50
2022-11-08T02:47:18.330Z,1.17
2022-11-08T02:49:46.317Z,1.70
2022-11-08T02:52:14.181Z,1.50
2022-11-08T02:54:42.040Z,1.47
2022-11-08T02:57:09.950Z,1.80
2022-11-08T02:59:39.097Z,1.50
2022-11-08T03:02:07.192Z,1.40
2022-11-08T03:04:35.225Z,1.37
2022-11-08T03:07:03.103Z,1.20
2022-11-08T03:09:30.938Z,1.60
2022-11-08T03:11:58.829Z,2.13
2022-11-08T03:14:26.864Z,1.80
2022-11-08T03:16:56.023Z,1.53
2022-11-08T03:19:23.869Z,1.17
2022-11-08T03:21:51.703Z,1.57
2022-11-08T03:24:19.552Z,1.37
2022-11-08T03:26:47.397Z,1.40
2022-11-08T03:29:15.261Z,1.80
2022-11-08T03:31:43.136Z,1.20
2022-11-08T03:34:12.559Z,1.77
2022-11-08T03:36:40.418Z,1.20
2022-11-08T03:39:08.283Z,1.07
2022-11-08T03:41:36.098Z,1.40
2022-11-08T03:44:04.036Z,1.50
2022-11-08T03:46:31.826Z,1.57
2022-11-08T03:48:59.834Z,1.00
2022-11-08T03:51:29.018Z,1.50
2022-11-08T03:53:56.870Z,1.70
2022-11-08T03:56:24.801Z,1.33
2022-11-08T03:58:52.624Z,1.83
2022-11-08T04:01:20.533Z,1.37
2022-11-08T04:03:48.493Z,1.47
2022-11-08T04:06:16.363Z,1.20
2022-11-08T04:08:45.619Z,1.00
2022-11-08T04:11:31.096Z,1.57
2022-11-08T04:14:16.781Z,1.43
2022-11-08T04:16:44.677Z,1.57
2022-11-08T04:19:29.951Z,0.90
2022-11-08T04:21:58.401Z,1.17
2022-11-08T04:24:27.616Z,1.37
2022-11-08T04:26:56.114Z,1.00
2022-11-08T04:29:23.953Z,1.40
2022-11-08T04:31:52.688Z,1.50
2022-11-08T04:34:20.599Z,1.13
2022-11-08T04:36:48.466Z,1.30
2022-11-08T04:39:16.324Z,1.17
2022-11-08T04:41:45.607Z,1.30
2022-11-08T04:44:15.458Z,0.87
2022-11-08T04:46:43.314Z,1.30
2022-11-08T04:49:11.493Z,1.20
2022-11-08T04:51:39.327Z,1.27
2022-11-08T04:54:07.733Z,1.90
2022-11-08T04:56:35.765Z,2.00
2022-11-08T04:59:09.486Z,1.60
2022-11-08T05:01:39.841Z,1.60
2022-11-08T05:04:07.825Z,1.63
2022-11-08T05:06:35.665Z,1.80
2022-11-08T05:09:03.567Z,1.97
2022-11-08T05:11:32.192Z,1.90
2022-11-08T05:14:00.189Z,1.80
2022-11-08T05:16:31.052Z,1.50
2022-11-08T05:18:59.197Z,1.87
2022-11-08T05:21:44.586Z,2.00
2022-11-08T05:24:14.362Z,1.90
2022-11-08T05:26:44.535Z,1.73
2022-11-08T05:29:13.348Z,2.07
2022-11-08T05:31:42.716Z,1.67
2022-11-08T05:34:10.548Z,1.47
2022-11-08T05:36:38.581Z,1.50
2022-11-08T05:39:06.449Z,1.63
2022-11-08T05:41:34.333Z,1.63
2022-11-08T05:44:02.221Z,1.50
2022-11-08T05:46:30.054Z,1.67
2022-11-08T05:48:59.468Z,1.40
2022-11-08T05:51:27.380Z,1.37
2022-11-08T05:53:55.221Z,1.50
2022-11-08T05:56:23.081Z,1.27
2022-11-08T05:58:50.912Z,1.37
2022-11-08T06:01:20.454Z,1.50
2022-11-08T06:03:49.063Z,1.23
2022-11-08T06:06:20.270Z,1.10
2022-11-08T06:08:51.426Z,1.53
2022-11-08T06:11:22.376Z,1.40
2022-11-08T06:13:50.483Z,1.33
2022-11-08T06:16:22.632Z,1.03
2022-11-08T06:18:50.543Z,1.80
2022-11-08T06:21:21.530Z,1.27
2022-11-08T06:23:52.308Z,1.10
2022-11-08T06:26:20.164Z,1.20
2022-11-08T06:28:47.988Z,1.40
2022-11-08T06:31:15.984Z,1.47
2022-11-08T06:33:49.171Z,1.20
2022-11-08T06:36:21.487Z,1.83
2022-11-08T06:38:57.650Z,1.07
2022-11-08T06:41:29.845Z,0.90
2022-11-08T06:43:57.765Z,1.20
2022-11-08T06:46:25.879Z,1.10
2022-11-08T06:48:53.726Z,1.00
2022-11-08T06:51:22.993Z,1.00
2022-11-08T06:53:50.993Z,1.03
2022-11-08T06:56:19.179Z,1.27
2022-11-08T06:58:47.012Z,1.43
2022-11-08T07:01:14.914Z,0.83
2022-11-08T07:03:42.810Z,1.20
2022-11-08T07:06:10.764Z,1.30
2022-11-08T07:08:39.978Z,1.50
2022-11-08T07:11:07.931Z,1.10
2022-11-08T07:13:35.889Z,1.03
2022-11-08T07:16:04.195Z,1.20
2022-11-08T07:18:32.240Z,1.00
2022-11-08T07:21:01.007Z,1.00
2022-11-08T07:23:29.374Z,0.80
2022-11-08T07:26:02.342Z,1.00
2022-11-08T07:28:30.298Z,1.17
2022-11-08T07:31:00.696Z,1.00
2022-11-08T07:33:29.061Z,1.03
2022-11-08T07:35:57.151Z,1.20
2022-11-08T07:38:26.113Z,1.30
2022-11-08T07:40:59.000Z,0.93
2022-11-08T07:43:28.162Z,1.20
2022-11-08T07:45:57.734Z,1.10
2022-11-08T07:48:26.668Z,1.10
2022-11-08T07:50:54.792Z,0.83
2022-11-08T07:53:23.098Z,0.97
2022-11-08T07:55:51.238Z,0.93
2022-11-08T07:58:21.075Z,1.00
2022-11-08T08:00:49.873Z,0.90
2022-11-08T08:03:18.856Z,1.10
2022-11-08T08:05:52.890Z,1.10
2022-11-08T08:08:22.977Z,0.90
2022-11-08T08:10:50.885Z,1.10
2022-11-08T08:13:20.610Z,0.90
2022-11-08T08:15:48.825Z,0.90
2022-11-08T08:18:17.311Z,1.00
2022-11-08T08:20:45.149Z,1.07
2022-11-08T08:23:12.974Z,1.30
2022-11-08T08:25:40.850Z,1.00
2022-11-08T08:28:08.693Z,1.20
2022-11-08T08:30:38.478Z,1.20
2022-11-08T08:36:00.626Z,0.90
2022-11-08T08:38:28.606Z,0.90
2022-11-08T08:40:56.485Z,1.00
2022-11-08T08:43:24.388Z,0.90
2022-11-08T08:45:54.296Z,0.97
2022-11-08T08:48:22.565Z,1.40
2022-11-08T08:50:50.518Z,1.00
2022-11-08T08:53:18.826Z,1.23
2022-11-08T08:55:47.936Z,0.87
2022-11-08T08:58:16.083Z,1.10
2022-11-08T09:03:34.800Z,1.20
2022-11-08T09:06:03.530Z,1.10
2022-11-08T09:08:31.865Z,1.00
2022-11-08T09:11:01.259Z,1.10
2022-11-08T09:13:30.759Z,0.83
2022-11-08T09:16:01.696Z,0.77
2022-11-08T09:18:29.825Z,1.10
2022-11-08T09:20:59.670Z,1.00
2022-11-08T09:23:27.882Z,0.90
2022-11-08T09:25:58.569Z,1.07
2022-11-08T09:28:30.963Z,1.07
2022-11-08T09:31:01.718Z,0.90
2022-11-08T09:33:29.917Z,1.20
2022-11-08T09:36:00.286Z,1.20
2022-11-08T09:38:28.452Z,1.10
2022-11-08T09:41:10.000Z,1.10
2022-11-08T09:43:53.618Z,1.10
2022-11-08T09:46:29.430Z,1.00
2022-11-08T09:49:00.742Z,1.10
2022-11-08T09:51:32.601Z,0.80
2022-11-08T09:54:03.465Z,1.03
2022-11-08T09:56:32.872Z,1.50
2022-11-08T09:59:04.919Z,1.23
2022-11-08T10:01:34.618Z,1.00
2022-11-08T10:04:07.496Z,1.20
2022-11-08T10:06:48.657Z,1.10
2022-11-08T10:09:28.971Z,1.10
2022-11-08T10:12:11.151Z,0.97
2022-11-08T10:14:54.163Z,1.10
2022-11-08T10:17:49.137Z,0.80
2022-11-08T10:20:26.816Z,1.40
2022-11-08T10:23:06.389Z,1.17
2022-11-08T10:25:39.550Z,1.37
2022-11-08T10:28:08.698Z,1.07
2022-11-08T10:30:39.288Z,1.07
2022-11-08T10:33:18.421Z,1.30
2022-11-08T10:35:49.321Z,1.47
2022-11-08T10:38:24.672Z,1.60
2022-11-08T10:41:00.493Z,1.20
2022-11-08T10:43:33.928Z,1.20
2022-11-08T10:46:01.840Z,1.20
2022-11-08T10:48:29.670Z,0.93
2022-11-08T10:50:57.504Z,1.20
2022-11-08T10:53:28.626Z,1.07
2022-11-08T10:56:01.190Z,0.90
2022-11-08T10:58:32.097Z,1.00
2022-11-08T11:01:06.106Z,0.97
2022-11-08T11:03:34.360Z,1.00
2022-11-08T11:06:03.981Z,1.37
2022-11-08T11:08:33.872Z,1.20
2022-11-08T11:11:23.420Z,0.87
2022-11-08T11:14:16.164Z,1.57
2022-11-08T11:16:56.435Z,1.10
2022-11-08T11:19:25.609Z,1.13
2022-11-08T11:21:57.779Z,1.10
2022-11-08T11:24:27.105Z,1.13
2022-11-08T11:27:04.787Z,1.27
2022-11-08T11:29:34.148Z,1.00
2022-11-08T11:32:26.050Z,1.40
2022-11-08T11:34:57.264Z,1.20
2022-11-08T11:37:35.818Z,1.10
2022-11-08T11:40:13.938Z,1.10
2022-11-08T11:42:48.716Z,1.03
2022-11-08T11:45:23.561Z,0.87
2022-11-08T11:47:54.145Z,1.00
2022-11-08T11:50:35.004Z,1.03
2022-11-08T11:53:05.997Z,1.30
2022-11-08T11:56:10.425Z,1.27
2022-11-08T11:58:53.846Z,1.30
2022-11-08T12:01:33.399Z,1.37
2022-11-08T12:04:26.340Z,1.20
2022-11-08T12:07:05.296Z,1.00
2022-11-08T12:09:49.342Z,1.23
2022-11-08T12:12:29.982Z,1.10
2022-11-08T12:15:03.731Z,1.40
2022-11-08T12:17:53.253Z,1.20
2022-11-08T12:20:49.778Z,1.23
2022-11-08T12:23:34.531Z,1.00
2022-11-08T12:26:11.460Z,1.07
2022-11-08T12:29:00.324Z,1.20
2022-11-08T12:31:33.438Z,1.03
2022-11-08T12:34:18.575Z,1.40
2022-11-08T12:36:58.557Z,1.50
2022-11-08T12:39:35.660Z,1.23
2022-11-08T12:42:26.803Z,0.90
2022-11-08T12:45:17.576Z,1.37
2022-11-08T12:47:50.825Z,0.97
2022-11-08T12:50:26.382Z,1.30
2022-11-08T12:53:18.779Z,1.43
2022-11-08T12:55:49.498Z,1.40
2022-11-08T12:58:34.004Z,1.03
2022-11-08T13:01:07.246Z,1.50
2022-11-08T13:04:00.580Z,1.40
2022-11-08T13:06:39.775Z,1.30
2022-11-08T13:09:16.425Z,1.37
2022-11-08T13:11:53.666Z,1.50
2022-11-08T13:14:22.778Z,1.27
2022-11-08T13:17:17.462Z,1.17
2022-11-08T13:20:05.137Z,1.43
2022-11-08T13:22:59.488Z,1.17
2022-11-08T13:25:44.741Z,1.43
2022-11-08T13:28:41.361Z,1.37
2022-11-08T13:31:27.078Z,1.17
2022-11-08T13:34:17.739Z,1.13
2022-11-08T13:36:59.978Z,1.30
2022-11-08T13:39:52.919Z,1.27
2022-11-08T13:42:56.708Z,1.40
2022-11-08T13:45:31.594Z,1.13
2022-11-08T13:48:02.111Z,1.40
2022-11-08T13:50:52.192Z,1.50
2022-11-08T13:53:54.573Z,1.10
2022-11-08T13:56:44.616Z,1.47
2022-11-08T13:59:49.625Z,1.40
2022-11-08T14:02:36.817Z,1.30
2022-11-08T14:05:24.268Z,1.57
2022-11-08T14:08:18.153Z,1.30
2022-11-08T14:11:25.978Z,1.40
2022-11-08T14:14:33.798Z,1.20
2022-11-08T14:17:13.379Z,1.10
2022-11-08T14:19:43.164Z,1.10
2022-11-08T14:22:16.909Z,1.50
2022-11-08T14:24:47.216Z,1.50
2022-11-08T14:27:15.993Z,1.00
2022-11-08T14:29:43.954Z,1.00
2022-11-08T14:32:19.854Z,1.40
2022-11-08T14:34:47.832Z,1.37
2022-11-08T14:37:22.782Z,1.50
2022-11-08T14:39:53.200Z,1.00
2022-11-08T14:42:24.245Z,1.20
2022-11-08T14:44:55.552Z,1.47
2022-11-08T14:47:26.061Z,1.17
2022-11-08T14:49:54.491Z,1.50
2022-11-08T14:52:25.682Z,1.30
2022-11-08T14:55:04.701Z,1.30
2022-11-08T14:57:35.616Z,1.60
2022-11-08T15:00:10.797Z,1.30
2022-11-08T15:02:39.250Z,1.43
2022-11-08T15:05:07.802Z,1.20
2022-11-08T15:07:36.263Z,1.17
2022-11-08T15:10:10.733Z,1.47
2022-11-08T15:12:42.956Z,1.20
2022-11-08T15:15:22.064Z,1.30
2022-11-08T15:18:13.257Z,1.40
2022-11-08T15:20:42.284Z,1.43
2022-11-08T15:23:41.239Z,1.40
2022-11-08T15:26:20.096Z,1.63
2022-11-08T15:29:07.849Z,1.97
2022-11-08T15:31:41.077Z,1.60
2022-11-08T15:34:21.450Z,1.43
2022-11-08T15:36:50.617Z,1.50
2022-11-08T15:39:23.529Z,1.50
2022-11-08T15:42:04.581Z,1.47
2022-11-08T15:44:32.441Z,1.47
2022-11-08T15:47:00.364Z,1.40
2022-11-08T15:49:29.683Z,1.33
2022-11-08T15:51:58.787Z,1.87
2022-11-08T15:54:27.909Z,1.10
2022-11-08T15:56:57.520Z,1.40
2022-11-08T15:59:30.642Z,1.57
2022-11-08T16:02:00.950Z,1.33
2022-11-08T16:04:29.762Z,1.50
2022-11-08T16:06:58.057Z,1.47
2022-11-08T16:09:26.243Z,1.60
2022-11-08T16:11:54.265Z,1.27
2022-11-08T16:14:25.088Z,1.50
2022-11-08T16:16:54.433Z,1.70
2022-11-08T16:19:24.690Z,1.60
2022-11-08T16:21:53.289Z,1.63
2022-11-08T16:24:21.205Z,1.43
2022-11-08T16:26:50.507Z,1.53
2022-11-08T16:29:21.430Z,1.60
2022-11-08T16:31:49.828Z,1.40
2022-11-08T16:34:19.904Z,1.40
2022-11-08T16:36:49.767Z,1.30
2022-11-08T16:39:19.378Z,1.40
2022-11-08T16:41:47.356Z,1.70
2022-11-08T16:44:15.212Z,1.47
2022-11-08T16:46:43.208Z,1.30
2022-11-08T16:49:21.969Z,1.33
2022-11-08T16:51:50.300Z,1.50
2022-11-08T16:54:20.505Z,1.40
2022-11-08T16:56:48.464Z,1.70
2022-11-08T16:59:16.336Z,1.43
2022-11-08T17:01:45.034Z,1.40
2022-11-08T17:04:12.927Z,1.30
2022-11-08T17:06:42.203Z,1.67
2022-11-08T17:09:10.157Z,1.57
2022-11-08T17:11:39.613Z,1.20
2022-11-08T17:14:07.725Z,1.37
2022-11-08T17:16:35.605Z,1.30
2022-11-08T17:19:04.672Z,1.27
2022-11-08T17:21:47.786Z,1.37
2022-11-08T17:24:21.884Z,1.30
2022-11-08T17:26:50.472Z,1.33
2022-11-08T17:29:18.417Z,1.60
2022-11-08T17:31:46.345Z,1.77
2022-11-08T17:34:14.223Z,1.20
2022-11-08T17:36:42.111Z,1.40
2022-11-08T17:39:13.921Z,1.43
2022-11-08T17:41:43.230Z,1.37
2022-11-08T17:44:11.427Z,1.20
2022-11-08T17:46:39.307Z,1.30
2022-11-08T17:49:07.156Z,1.27
2022-11-08T17:51:35.252Z,1.20
2022-11-08T17:54:03.216Z,1.03
2022-11-08T17:56:31.121Z,1.30
2022-11-08T17:59:00.454Z,1.40
2022-11-08T18:01:28.485Z,1.37
2022-11-08T18:03:56.462Z,1.50
2022-11-08T18:06:24.664Z,1.10
2022-11-08T18:08:52.662Z,1.13
2022-11-08T18:11:20.591Z,1.13
2022-11-08T18:13:49.081Z,1.40
2022-11-08T18:16:27.606Z,1.40
2022-11-08T18:19:03.891Z,1.27
2022-11-08T18:21:31.775Z,1.30
2022-11-08T18:23:59.952Z,1.50
2022-11-08T18:26:28.286Z,1.50
2022-11-08T18:28:56.181Z,1.20
2022-11-08T18:31:26.134Z,1.50
2022-11-08T18:33:54.033Z,1.30
2022-11-08T18:36:23.409Z,1.50
2022-11-08T18:38:54.382Z,1.80
2022-11-08T18:41:25.110Z,2.13
2022-11-08T18:43:53.684Z,1.37
2022-11-08T18:46:24.065Z,1.47
2022-11-08T18:48:55.401Z,1.50
2022-11-08T18:51:24.139Z,1.20
2022-11-08T18:53:52.878Z,1.73
2022-11-08T18:56:21.736Z,1.27
2022-11-08T18:58:50.227Z,1.60
2022-11-08T19:01:18.603Z,1.20
2022-11-08T19:03:46.771Z,1.70
2022-11-08T19:06:19.591Z,1.20
2022-11-08T19:08:47.591Z,1.20
2022-11-08T19:11:20.432Z,1.40
2022-11-08T19:13:49.356Z,1.23
2022-11-08T19:16:19.309Z,1.90
2022-11-08T19:18:49.210Z,1.70
2022-11-08T19:21:23.136Z,1.30
2022-11-08T19:23:52.061Z,1.50
2022-11-08T19:26:21.504Z,1.73
2022-11-08T19:28:49.988Z,1.40
2022-11-08T19:31:20.908Z,2.50
2022-11-08T19:33:51.018Z,1.80
2022-11-08T19:36:22.913Z,1.27
2022-11-08T19:38:52.141Z,1.40
2022-11-08T19:41:21.993Z,1.60
2022-11-08T19:43:50.650Z,1.40
2022-11-08T19:52:07.694Z,1.70
2022-11-08T19:54:35.564Z,1.57
2022-11-08T19:57:05.193Z,1.30
2022-11-08T19:59:33.933Z,1.23
2022-11-08T20:02:01.939Z,1.37
2022-11-08T20:04:29.957Z,1.53
2022-11-08T20:06:57.940Z,1.30
2022-11-08T20:09:30.610Z,1.20
2022-11-08T20:11:58.916Z,1.23
2022-11-08T20:14:26.871Z,1.10
2022-11-08T20:16:55.541Z,1.10
2022-11-08T20:19:23.680Z,1.43
2022-11-08T20:21:51.702Z,1.40
2022-11-08T20:24:19.830Z,1.33
2022-11-08T20:26:49.358Z,1.27
2022-11-08T20:29:17.274Z,1.27
2022-11-08T20:31:45.790Z,1.60
2022-11-08T20:34:13.978Z,1.10
2022-11-08T20:36:43.785Z,1.70
2022-11-08T20:39:13.103Z,1.20
2022-11-08T20:41:41.680Z,1.40
2022-11-08T20:44:11.440Z,1.23
2022-11-08T20:46:40.226Z,1.33
2022-11-08T20:49:08.489Z,1.40
2022-11-08T20:51:36.544Z,1.30
2022-11-08T20:54:04.958Z,1.70
2022-11-08T20:56:32.886Z,1.30
2022-11-08T20:59:01.081Z,1.30
2022-11-08T21:01:32.829Z,1.20
2022-11-08T21:04:01.249Z,1.60
2022-11-08T21:06:35.617Z,1.53
2022-11-08T21:09:16.953Z,1.33
2022-11-08T21:11:51.910Z,1.40
2022-11-08T21:14:20.055Z,1.77
2022-11-08T21:19:37.141Z,1.60
2022-11-08T21:22:16.949Z,2.10
2022-11-08T21:24:46.606Z,2.10
2022-11-08T21:27:15.337Z,1.37
2022-11-08T21:29:43.190Z,1.37
2022-11-08T21:32:12.433Z,1.60
2022-11-08T21:34:45.197Z,1.47
2022-11-08T21:37:13.744Z,1.43
2022-11-08T21:39:42.014Z,1.80
2022-11-08T21:42:09.886Z,1.70
2022-11-08T21:44:37.726Z,2.30
2022-11-08T21:47:05.553Z,1.63
2022-11-08T21:49:34.740Z,1.33
2022-11-08T21:52:03.832Z,1.20
2022-11-08T21:54:31.679Z,1.53
2022-11-08T21:56:59.533Z,1.40
2022-11-08T21:59:27.414Z,1.37
2022-11-08T22:01:55.354Z,1.30
2022-11-08T22:04:23.180Z,1.00
2022-11-08T22:06:52.535Z,1.20
2022-11-08T22:09:20.473Z,1.10
2022-11-08T22:11:48.436Z,1.20
2022-11-08T22:14:16.549Z,0.93
2022-11-08T22:16:44.384Z,1.40
2022-11-08T22:19:12.666Z,1.13
2022-11-08T22:21:42.955Z,1.13
2022-11-08T22:24:14.126Z,1.13
2022-11-08T22:26:42.662Z,0.97
2022-11-08T22:29:11.187Z,1.00
2022-11-08T22:31:39.620Z,1.20
2022-11-08T22:34:08.908Z,0.90
2022-11-08T22:36:44.111Z,1.03
2022-11-08T22:39:14.983Z,1.20
2022-11-08T22:41:43.399Z,0.90
2022-11-08T22:44:12.547Z,1.00
2022-11-08T22:46:41.487Z,1.17
2022-11-08T22:49:09.676Z,1.40
2022-11-08T22:51:37.870Z,1.07
2022-11-08T22:54:06.659Z,1.10
2022-11-08T22:56:36.301Z,1.07
2022-11-08T22:59:04.726Z,1.10
2022-11-08T23:01:32.622Z,1.10
2022-11-08T23:04:00.806Z,1.30
2022-11-08T23:06:28.720Z,1.00
2022-11-08T23:08:56.638Z,1.30
2022-11-08T23:11:42.312Z,1.23
2022-11-08T23:14:40.896Z,1.40
2022-11-08T23:17:08.979Z,0.97
2022-11-08T23:19:54.565Z,1.07
2022-11-08T23:22:40.330Z,0.83
2022-11-08T23:25:08.885Z,1.00
2022-11-08T23:27:54.024Z,1.00
2022-11-08T23:30:40.866Z,1.00
2022-11-08T23:33:08.818Z,1.00
2022-11-08T23:35:36.684Z,1.13
2022-11-08T23:38:04.517Z,1.13
2022-11-08T23:40:50.103Z,0.80
2022-11-08T23:43:37.482Z,1.00
2022-11-08T23:46:08.453Z,0.90
2022-11-08T23:48:37.160Z,0.87
2022-11-08T23:51:05.648Z,1.27
2022-11-08T23:53:36.483Z,1.10
2022-11-08T23:56:04.936Z,1.00
2022-11-08T23:58:33.586Z,0.70
